X  Close Metar Aviation Weather Data     EGHH Bournemouth Airport
Temperature
14°C Temperature
10°C Dewpoint
77% Humidity



Wind
9 MPH
14 KM/H
4 M/S
8 KTS



250°
WSW
Current Conditions

Area Showers Area Showers
Pressure 1014.92 (hPa) - 29.97 (inHg)
Visibility 6.2 (mile) - 10 (km)
Airport
Airport-code EGHH

Location: Bournemouth Airport
Distance: 14 (mi)

Metar:
EGHH 251620Z 25008KT 9999 VCSH FEW028TCU 14/10 Q1015

Time: 25-10-2021 17:20 BST